sensor_id;sensor_type;location;lat;lon;timestamp;pressure;altitude;pressure_sealevel;temperature;humidity
76201;BME280;64981;52.930;9.266;2023-12-22T00:01:08;98941.34;;;4.68;75.60
76201;BME280;64981;52.930;9.266;2023-12-22T00:03:34;98941.38;;;4.60;75.82
76201;BME280;64981;52.930;9.266;2023-12-22T00:06:00;98945.50;;;4.47;76.02
76201;BME280;64981;52.930;9.266;2023-12-22T00:08:25;98947.91;;;4.56;75.98
76201;BME280;64981;52.930;9.266;2023-12-22T00:10:51;98950.03;;;4.61;75.62
76201;BME280;64981;52.930;9.266;2023-12-22T00:13:16;98947.59;;;4.59;75.44
76201;BME280;64981;52.930;9.266;2023-12-22T00:15:42;98935.38;;;4.43;75.42
76201;BME280;64981;52.930;9.266;2023-12-22T00:18:08;98951.38;;;4.40;75.93
76201;BME280;64981;52.930;9.266;2023-12-22T00:20:34;98959.00;;;4.58;73.50
76201;BME280;64981;52.930;9.266;2023-12-22T00:23:00;98953.63;;;4.52;74.39
76201;BME280;64981;52.930;9.266;2023-12-22T00:25:25;98947.88;;;4.64;73.91
76201;BME280;64981;52.930;9.266;2023-12-22T00:27:51;98961.09;;;4.71;73.08
76201;BME280;64981;52.930;9.266;2023-12-22T00:30:17;98949.97;;;4.77;73.14
76201;BME280;64981;52.930;9.266;2023-12-22T00:32:42;98939.25;;;4.64;72.97
76201;BME280;64981;52.930;9.266;2023-12-22T00:35:08;98941.16;;;4.78;73.10
76201;BME280;64981;52.930;9.266;2023-12-22T00:37:34;98944.28;;;4.65;73.06
76201;BME280;64981;52.930;9.266;2023-12-22T00:39:59;98944.16;;;4.59;72.69
76201;BME280;64981;52.930;9.266;2023-12-22T00:42:26;98961.91;;;4.79;72.64
76201;BME280;64981;52.930;9.266;2023-12-22T00:44:51;98964.28;;;4.50;73.03
76201;BME280;64981;52.930;9.266;2023-12-22T00:47:17;98977.81;;;4.70;73.08
76201;BME280;64981;52.930;9.266;2023-12-22T00:49:43;98982.50;;;4.82;72.50
76201;BME280;64981;52.930;9.266;2023-12-22T00:52:09;98987.09;;;4.64;72.58
76201;BME280;64981;52.930;9.266;2023-12-22T00:54:34;98999.31;;;4.80;71.69
76201;BME280;64981;52.930;9.266;2023-12-22T00:57:00;98995.44;;;4.68;71.56
76201;BME280;64981;52.930;9.266;2023-12-22T00:59:26;99015.06;;;4.72;70.46
76201;BME280;64981;52.930;9.266;2023-12-22T01:01:51;99008.00;;;4.80;70.00
76201;BME280;64981;52.930;9.266;2023-12-22T01:04:17;99000.81;;;4.82;69.62
76201;BME280;64981;52.930;9.266;2023-12-22T01:06:43;98990.34;;;4.74;69.14
76201;BME280;64981;52.930;9.266;2023-12-22T01:09:08;98987.59;;;4.76;69.20
76201;BME280;64981;52.930;9.266;2023-12-22T01:11:34;98992.63;;;4.85;69.21
76201;BME280;64981;52.930;9.266;2023-12-22T01:14:00;99003.47;;;4.66;70.53
76201;BME280;64981;52.930;9.266;2023-12-22T01:16:25;98994.63;;;4.67;70.26
76201;BME280;64981;52.930;9.266;2023-12-22T01:18:51;99014.56;;;4.68;70.92
76201;BME280;64981;52.930;9.266;2023-12-22T01:21:17;99006.38;;;4.79;71.39
76201;BME280;64981;52.930;9.266;2023-12-22T01:23:43;99027.00;;;4.66;72.06
76201;BME280;64981;52.930;9.266;2023-12-22T01:26:08;99030.59;;;4.73;71.81
76201;BME280;64981;52.930;9.266;2023-12-22T01:28:34;99018.47;;;4.64;72.00
76201;BME280;64981;52.930;9.266;2023-12-22T01:31:01;99012.88;;;4.91;71.09
76201;BME280;64981;52.930;9.266;2023-12-22T01:33:26;99029.88;;;4.87;70.98
76201;BME280;64981;52.930;9.266;2023-12-22T01:35:52;99030.03;;;4.86;71.47
76201;BME280;64981;52.930;9.266;2023-12-22T01:38:17;99019.50;;;4.47;72.41
76201;BME280;64981;52.930;9.266;2023-12-22T01:40:43;99032.41;;;4.49;72.88
76201;BME280;64981;52.930;9.266;2023-12-22T01:43:09;99043.84;;;4.39;73.88
76201;BME280;64981;52.930;9.266;2023-12-22T01:45:35;99038.13;;;4.60;73.61
76201;BME280;64981;52.930;9.266;2023-12-22T01:48:01;99051.34;;;4.67;73.46
76201;BME280;64981;52.930;9.266;2023-12-22T01:50:28;99055.91;;;4.65;73.81
76201;BME280;64981;52.930;9.266;2023-12-22T01:52:54;99035.00;;;4.49;73.97
76201;BME280;64981;52.930;9.266;2023-12-22T01:55:20;99029.81;;;4.40;74.01
76201;BME280;64981;52.930;9.266;2023-12-22T01:57:47;99030.63;;;4.41;74.57
76201;BME280;64981;52.930;9.266;2023-12-22T02:00:14;99029.31;;;4.37;74.64
76201;BME280;64981;52.930;9.266;2023-12-22T02:02:41;99036.00;;;4.56;73.97
76201;BME280;64981;52.930;9.266;2023-12-22T02:05:08;99040.41;;;4.55;73.47
76201;BME280;64981;52.930;9.266;2023-12-22T02:07:38;99023.38;;;4.27;74.19
76201;BME280;64981;52.930;9.266;2023-12-22T02:10:08;99020.44;;;4.30;74.13
76201;BME280;64981;52.930;9.266;2023-12-22T02:12:35;99024.38;;;4.42;73.92
76201;BME280;64981;52.930;9.266;2023-12-22T02:15:01;99030.28;;;4.36;74.17
76201;BME280;64981;52.930;9.266;2023-12-22T02:17:43;99038.56;;;4.23;74.40
76201;BME280;64981;52.930;9.266;2023-12-22T02:20:11;99044.78;;;4.14;74.03
76201;BME280;64981;52.930;9.266;2023-12-22T02:22:36;99041.72;;;4.43;72.98
76201;BME280;64981;52.930;9.266;2023-12-22T02:25:02;99044.00;;;4.46;72.90
76201;BME280;64981;52.930;9.266;2023-12-22T02:27:38;99040.06;;;4.34;73.67
76201;BME280;64981;52.930;9.266;2023-12-22T02:30:24;99049.22;;;4.62;72.75
76201;BME280;64981;52.930;9.266;2023-12-22T02:32:55;99041.91;;;4.41;73.38
76201;BME280;64981;52.930;9.266;2023-12-22T02:35:25;99037.63;;;4.49;73.43
76201;BME280;64981;52.930;9.266;2023-12-22T02:37:52;99023.59;;;4.41;72.95
76201;BME280;64981;52.930;9.266;2023-12-22T02:40:19;99018.66;;;4.55;71.49
76201;BME280;64981;52.930;9.266;2023-12-22T02:42:46;99045.78;;;4.46;71.32
76201;BME280;64981;52.930;9.266;2023-12-22T02:45:15;99017.03;;;4.46;71.26
76201;BME280;64981;52.930;9.266;2023-12-22T02:47:41;99043.69;;;4.41;71.34
76201;BME280;64981;52.930;9.266;2023-12-22T02:50:08;99059.03;;;4.52;71.00
76201;BME280;64981;52.930;9.266;2023-12-22T02:52:34;99020.31;;;4.31;72.76
76201;BME280;64981;52.930;9.266;2023-12-22T02:55:01;99008.06;;;4.32;72.83
76201;BME280;64981;52.930;9.266;2023-12-22T02:57:27;99007.72;;;4.27;73.53
76201;BME280;64981;52.930;9.266;2023-12-22T02:59:52;99008.03;;;4.08;73.75
76201;BME280;64981;52.930;9.266;2023-12-22T03:02:18;99020.28;;;4.15;73.14
76201;BME280;64981;52.930;9.266;2023-12-22T03:04:43;99029.44;;;4.03;73.96
76201;BME280;64981;52.930;9.266;2023-12-22T03:07:12;99018.19;;;3.95;74.89
76201;BME280;64981;52.930;9.266;2023-12-22T03:09:37;99011.94;;;3.87;75.48
76201;BME280;64981;52.930;9.266;2023-12-22T03:12:03;99009.03;;;3.90;75.80
76201;BME280;64981;52.930;9.266;2023-12-22T03:14:29;99015.25;;;3.98;75.79
76201;BME280;64981;52.930;9.266;2023-12-22T03:16:56;99027.44;;;3.89;75.82
76201;BME280;64981;52.930;9.266;2023-12-22T03:19:21;99026.34;;;4.00;75.28
76201;BME280;64981;52.930;9.266;2023-12-22T03:21:48;99002.16;;;3.81;75.51
76201;BME280;64981;52.930;9.266;2023-12-22T03:24:14;99010.78;;;3.74;75.74
76201;BME280;64981;52.930;9.266;2023-12-22T03:26:39;99001.34;;;3.81;75.54
76201;BME280;64981;52.930;9.266;2023-12-22T03:29:05;99002.66;;;3.93;75.30
76201;BME280;64981;52.930;9.266;2023-12-22T03:31:31;98998.06;;;3.79;75.35
76201;BME280;64981;52.930;9.266;2023-12-22T03:33:56;98999.38;;;3.99;74.79
76201;BME280;64981;52.930;9.266;2023-12-22T03:36:22;98991.22;;;4.02;74.37
76201;BME280;64981;52.930;9.266;2023-12-22T03:38:47;98990.22;;;3.95;74.50
76201;BME280;64981;52.930;9.266;2023-12-22T03:41:13;99006.41;;;3.99;75.02
76201;BME280;64981;52.930;9.266;2023-12-22T03:43:38;99008.38;;;3.97;74.79
76201;BME280;64981;52.930;9.266;2023-12-22T03:46:04;99023.56;;;4.01;75.63
76201;BME280;64981;52.930;9.266;2023-12-22T03:48:29;99027.66;;;4.20;75.15
76201;BME280;64981;52.930;9.266;2023-12-22T03:50:55;99003.47;;;4.18;75.25
76201;BME280;64981;52.930;9.266;2023-12-22T03:53:21;99023.56;;;4.09;75.44
76201;BME280;64981;52.930;9.266;2023-12-22T03:55:46;99035.47;;;3.96;76.83
76201;BME280;64981;52.930;9.266;2023-12-22T03:58:12;99045.47;;;4.16;76.16
76201;BME280;64981;52.930;9.266;2023-12-22T04:00:37;99032.56;;;4.23;75.86
76201;BME280;64981;52.930;9.266;2023-12-22T04:03:03;99040.38;;;4.31;75.18
76201;BME280;64981;52.930;9.266;2023-12-22T04:05:29;99036.63;;;4.09;75.38
76201;BME280;64981;52.930;9.266;2023-12-22T04:07:55;99028.78;;;4.01;75.81
76201;BME280;64981;52.930;9.266;2023-12-22T04:10:20;99038.75;;;4.14;75.08
76201;BME280;64981;52.930;9.266;2023-12-22T04:12:46;99024.88;;;4.13;74.56
76201;BME280;64981;52.930;9.266;2023-12-22T04:15:12;99032.06;;;4.03;74.38
76201;BME280;64981;52.930;9.266;2023-12-22T04:17:38;99034.47;;;4.05;73.82
76201;BME280;64981;52.930;9.266;2023-12-22T04:20:05;99030.41;;;3.94;73.98
76201;BME280;64981;52.930;9.266;2023-12-22T04:22:31;99004.44;;;3.84;74.22
76201;BME280;64981;52.930;9.266;2023-12-22T04:24:57;98998.72;;;3.89;73.87
76201;BME280;64981;52.930;9.266;2023-12-22T04:27:22;99016.53;;;4.02;73.25
76201;BME280;64981;52.930;9.266;2023-12-22T04:29:48;99034.66;;;4.11;74.05
76201;BME280;64981;52.930;9.266;2023-12-22T04:32:13;99028.00;;;4.17;72.98
76201;BME280;64981;52.930;9.266;2023-12-22T04:34:39;99050.19;;;4.21;73.54
76201;BME280;64981;52.930;9.266;2023-12-22T04:37:04;99039.84;;;3.95;75.76
76201;BME280;64981;52.930;9.266;2023-12-22T04:39:30;99073.53;;;4.30;75.50
76201;BME280;64981;52.930;9.266;2023-12-22T04:41:55;99080.88;;;4.11;76.93
76201;BME280;64981;52.930;9.266;2023-12-22T04:44:21;99080.03;;;3.94;78.41
76201;BME280;64981;52.930;9.266;2023-12-22T04:46:46;99076.00;;;3.58;80.06
76201;BME280;64981;52.930;9.266;2023-12-22T04:49:12;99067.19;;;3.51;80.21
76201;BME280;64981;52.930;9.266;2023-12-22T04:51:38;99062.81;;;3.59;80.47
76201;BME280;64981;52.930;9.266;2023-12-22T04:54:04;99049.13;;;3.65;79.85
76201;BME280;64981;52.930;9.266;2023-12-22T04:56:29;99046.81;;;3.62;79.98
76201;BME280;64981;52.930;9.266;2023-12-22T04:58:55;99055.31;;;3.64;79.78
76201;BME280;64981;52.930;9.266;2023-12-22T05:01:20;99062.03;;;3.75;79.75
76201;BME280;64981;52.930;9.266;2023-12-22T05:03:46;99056.50;;;3.78;79.46
76201;BME280;64981;52.930;9.266;2023-12-22T05:06:12;99057.00;;;3.81;79.71
76201;BME280;64981;52.930;9.266;2023-12-22T05:08:37;99048.16;;;3.74;79.41
76201;BME280;64981;52.930;9.266;2023-12-22T05:11:03;99043.06;;;3.57;79.06
76201;BME280;64981;52.930;9.266;2023-12-22T05:13:28;99043.91;;;3.65;79.49
76201;BME280;64981;52.930;9.266;2023-12-22T05:15:54;99039.31;;;3.59;80.34
76201;BME280;64981;52.930;9.266;2023-12-22T05:18:20;99047.00;;;3.77;79.86
76201;BME280;64981;52.930;9.266;2023-12-22T05:20:46;99039.31;;;3.59;80.51
76201;BME280;64981;52.930;9.266;2023-12-22T05:23:11;99029.88;;;3.66;80.00
76201;BME280;64981;52.930;9.266;2023-12-22T05:25:37;99037.38;;;3.69;79.50
76201;BME280;64981;52.930;9.266;2023-12-22T05:28:02;99037.75;;;3.82;79.07
76201;BME280;64981;52.930;9.266;2023-12-22T05:30:28;99054.19;;;3.75;79.76
76201;BME280;64981;52.930;9.266;2023-12-22T05:32:54;99071.34;;;3.77;79.34
76201;BME280;64981;52.930;9.266;2023-12-22T05:35:20;99069.69;;;3.76;79.46
76201;BME280;64981;52.930;9.266;2023-12-22T05:37:46;99081.28;;;3.66;79.70
76201;BME280;64981;52.930;9.266;2023-12-22T05:40:13;99074.59;;;3.71;78.81
76201;BME280;64981;52.930;9.266;2023-12-22T05:42:39;99079.47;;;3.66;79.52
76201;BME280;64981;52.930;9.266;2023-12-22T05:45:05;99067.13;;;3.84;78.89
76201;BME280;64981;52.930;9.266;2023-12-22T05:47:32;99071.38;;;3.94;77.78
76201;BME280;64981;52.930;9.266;2023-12-22T05:49:58;99059.47;;;3.91;78.12
76201;BME280;64981;52.930;9.266;2023-12-22T05:52:24;99072.56;;;4.07;77.78
76201;BME280;64981;52.930;9.266;2023-12-22T05:54:49;99080.06;;;4.10;77.90
76201;BME280;64981;52.930;9.266;2023-12-22T05:57:15;99068.47;;;4.13;76.91
76201;BME280;64981;52.930;9.266;2023-12-22T05:59:40;99057.84;;;3.98;75.59
76201;BME280;64981;52.930;9.266;2023-12-22T06:02:06;99064.72;;;4.07;75.13
76201;BME280;64981;52.930;9.266;2023-12-22T06:04:32;99070.72;;;4.08;74.68
76201;BME280;64981;52.930;9.266;2023-12-22T06:06:58;99065.84;;;4.13;74.88
76201;BME280;64981;52.930;9.266;2023-12-22T06:09:24;99068.47;;;4.13;75.33
76201;BME280;64981;52.930;9.266;2023-12-22T06:11:50;99098.75;;;4.48;73.76
76201;BME280;64981;52.930;9.266;2023-12-22T06:14:15;99104.41;;;4.19;73.74
76201;BME280;64981;52.930;9.266;2023-12-22T06:16:41;99096.72;;;4.17;73.75
76201;BME280;64981;52.930;9.266;2023-12-22T06:19:06;99070.06;;;3.89;73.62
76201;BME280;64981;52.930;9.266;2023-12-22T06:21:32;99095.53;;;3.96;72.82
76201;BME280;64981;52.930;9.266;2023-12-22T06:23:58;99105.56;;;4.16;72.17
76201;BME280;64981;52.930;9.266;2023-12-22T06:26:23;99124.31;;;4.04;72.28
76201;BME280;64981;52.930;9.266;2023-12-22T06:28:49;99114.31;;;3.99;72.94
76201;BME280;64981;52.930;9.266;2023-12-22T06:31:18;99133.75;;;3.97;73.95
76201;BME280;64981;52.930;9.266;2023-12-22T06:33:45;99131.31;;;4.03;74.03
76201;BME280;64981;52.930;9.266;2023-12-22T06:36:20;99153.50;;;3.99;73.73
76201;BME280;64981;52.930;9.266;2023-12-22T06:38:47;99126.91;;;4.12;73.58
76201;BME280;64981;52.930;9.266;2023-12-22T06:41:23;99138.53;;;4.17;73.15
76201;BME280;64981;52.930;9.266;2023-12-22T06:43:50;99145.22;;;4.04;73.10
76201;BME280;64981;52.930;9.266;2023-12-22T06:46:17;99146.03;;;4.04;73.40
76201;BME280;64981;52.930;9.266;2023-12-22T06:48:44;99147.19;;;4.18;72.95
76201;BME280;64981;52.930;9.266;2023-12-22T06:51:21;99179.53;;;4.25;72.49
76201;BME280;64981;52.930;9.266;2023-12-22T06:53:48;99166.94;;;4.20;72.71
76201;BME280;64981;52.930;9.266;2023-12-22T06:56:16;99158.97;;;4.30;72.27
76201;BME280;64981;52.930;9.266;2023-12-22T06:58:42;99151.47;;;4.35;72.52
76201;BME280;64981;52.930;9.266;2023-12-22T07:01:08;99165.50;;;4.34;72.78
76201;BME280;64981;52.930;9.266;2023-12-22T07:03:34;99163.25;;;4.39;72.47
76201;BME280;64981;52.930;9.266;2023-12-22T07:05:59;99164.25;;;4.46;72.41
76201;BME280;64981;52.930;9.266;2023-12-22T07:08:25;99184.00;;;4.32;72.96
76201;BME280;64981;52.930;9.266;2023-12-22T07:10:50;99183.84;;;4.42;72.52
76201;BME280;64981;52.930;9.266;2023-12-22T07:13:16;99200.03;;;4.46;72.13
76201;BME280;64981;52.930;9.266;2023-12-22T07:15:42;99194.75;;;4.29;72.29
76201;BME280;64981;52.930;9.266;2023-12-22T07:18:07;99193.75;;;4.22;72.13
76201;BME280;64981;52.930;9.266;2023-12-22T07:20:33;99212.06;;;4.30;72.28
76201;BME280;64981;52.930;9.266;2023-12-22T07:22:58;99231.09;;;4.49;72.10
76201;BME280;64981;52.930;9.266;2023-12-22T07:25:24;99215.56;;;4.47;72.91
76201;BME280;64981;52.930;9.266;2023-12-22T07:27:49;99246.28;;;4.45;74.27
76201;BME280;64981;52.930;9.266;2023-12-22T07:30:16;99233.50;;;4.42;75.45
76201;BME280;64981;52.930;9.266;2023-12-22T07:32:43;99235.84;;;4.45;75.75
76201;BME280;64981;52.930;9.266;2023-12-22T07:35:09;99243.28;;;4.32;76.26
76201;BME280;64981;52.930;9.266;2023-12-22T07:37:35;99253.28;;;4.36;76.13
76201;BME280;64981;52.930;9.266;2023-12-22T07:40:01;99246.13;;;4.55;75.32
76201;BME280;64981;52.930;9.266;2023-12-22T07:42:27;99247.94;;;4.20;76.86
76201;BME280;64981;52.930;9.266;2023-12-22T07:44:52;99264.34;;;4.30;75.95
76201;BME280;64981;52.930;9.266;2023-12-22T07:47:18;99276.38;;;4.15;77.00
76201;BME280;64981;52.930;9.266;2023-12-22T07:49:43;99286.16;;;4.47;76.35
76201;BME280;64981;52.930;9.266;2023-12-22T07:52:10;99271.56;;;4.36;76.34
76201;BME280;64981;52.930;9.266;2023-12-22T07:54:36;99264.66;;;4.27;76.83
76201;BME280;64981;52.930;9.266;2023-12-22T07:57:01;99268.81;;;4.38;76.50
76201;BME280;64981;52.930;9.266;2023-12-22T07:59:27;99261.22;;;4.27;76.61
76201;BME280;64981;52.930;9.266;2023-12-22T08:01:52;99271.47;;;4.20;76.72
76201;BME280;64981;52.930;9.266;2023-12-22T08:04:18;99263.88;;;4.35;75.96
76201;BME280;64981;52.930;9.266;2023-12-22T08:06:44;99265.25;;;4.47;75.44
76201;BME280;64981;52.930;9.266;2023-12-22T08:09:09;99283.72;;;4.54;75.45
76201;BME280;64981;52.930;9.266;2023-12-22T08:11:35;99277.16;;;4.50;75.30
76201;BME280;64981;52.930;9.266;2023-12-22T08:14:01;99293.22;;;4.63;74.85
76201;BME280;64981;52.930;9.266;2023-12-22T08:16:28;99283.41;;;4.65;74.80
76201;BME280;64981;52.930;9.266;2023-12-22T08:18:54;99280.78;;;4.57;74.40
76201;BME280;64981;52.930;9.266;2023-12-22T08:21:19;99285.00;;;4.41;74.55
76201;BME280;64981;52.930;9.266;2023-12-22T08:23:45;99287.00;;;4.56;74.38
76201;BME280;64981;52.930;9.266;2023-12-22T08:26:10;99303.25;;;4.83;73.50
76201;BME280;64981;52.930;9.266;2023-12-22T08:28:37;99303.41;;;4.90;72.87
76201;BME280;64981;52.930;9.266;2023-12-22T08:31:03;99305.03;;;4.83;72.99
76201;BME280;64981;52.930;9.266;2023-12-22T08:33:29;99297.19;;;4.83;72.91
76201;BME280;64981;52.930;9.266;2023-12-22T08:35:56;99291.00;;;5.00;72.58
76201;BME280;64981;52.930;9.266;2023-12-22T08:38:22;99311.97;;;5.16;72.23
76201;BME280;64981;52.930;9.266;2023-12-22T08:40:48;99317.03;;;5.18;71.42
76201;BME280;64981;52.930;9.266;2023-12-22T08:43:14;99315.38;;;5.09;71.77
76201;BME280;64981;52.930;9.266;2023-12-22T08:45:40;99298.69;;;5.02;70.92
76201;BME280;64981;52.930;9.266;2023-12-22T08:48:06;99291.66;;;5.02;69.49
76201;BME280;64981;52.930;9.266;2023-12-22T08:50:34;99305.09;;;5.15;68.28
76201;BME280;64981;52.930;9.266;2023-12-22T08:52:59;99317.06;;;5.50;67.87
76201;BME280;64981;52.930;9.266;2023-12-22T08:55:25;99324.25;;;5.48;68.12
76201;BME280;64981;52.930;9.266;2023-12-22T08:57:51;99336.38;;;5.57;67.89
76201;BME280;64981;52.930;9.266;2023-12-22T09:00:16;99334.22;;;5.69;68.03
76201;BME280;64981;52.930;9.266;2023-12-22T09:02:42;99324.06;;;5.33;69.66
76201;BME280;64981;52.930;9.266;2023-12-22T09:05:08;99327.69;;;5.57;69.80
76201;BME280;64981;52.930;9.266;2023-12-22T09:07:33;99324.72;;;5.76;69.23
76201;BME280;64981;52.930;9.266;2023-12-22T09:09:59;99310.16;;;5.33;70.85
76201;BME280;64981;52.930;9.266;2023-12-22T09:12:24;99314.13;;;5.29;71.46
76201;BME280;64981;52.930;9.266;2023-12-22T09:14:50;99306.75;;;5.40;71.20
76201;BME280;64981;52.930;9.266;2023-12-22T09:17:15;99317.38;;;5.47;71.37
76201;BME280;64981;52.930;9.266;2023-12-22T09:19:41;99337.69;;;5.53;70.40
76201;BME280;64981;52.930;9.266;2023-12-22T09:22:08;99327.84;;;5.55;70.70
76201;BME280;64981;52.930;9.266;2023-12-22T09:24:34;99320.31;;;5.60;70.22
76201;BME280;64981;52.930;9.266;2023-12-22T09:26:59;99303.28;;;5.64;70.08
76201;BME280;64981;52.930;9.266;2023-12-22T09:29:29;99318.66;;;5.83;69.89
76201;BME280;64981;52.930;9.266;2023-12-22T09:31:55;99323.59;;;5.62;70.28
76201;BME280;64981;52.930;9.266;2023-12-22T09:34:21;99325.41;;;5.54;70.21
76201;BME280;64981;52.930;9.266;2023-12-22T09:36:47;99333.59;;;5.50;70.60
76201;BME280;64981;52.930;9.266;2023-12-22T09:39:12;99341.59;;;5.49;69.84
76201;BME280;64981;52.930;9.266;2023-12-22T09:41:48;99327.03;;;5.46;69.81
76201;BME280;64981;52.930;9.266;2023-12-22T09:44:19;99342.59;;;5.56;69.32
76201;BME280;64981;52.930;9.266;2023-12-22T09:46:48;99350.44;;;5.48;69.26
76201;BME280;64981;52.930;9.266;2023-12-22T09:49:17;99337.66;;;5.77;68.54
76201;BME280;64981;52.930;9.266;2023-12-22T09:51:44;99351.09;;;5.66;69.43
76201;BME280;64981;52.930;9.266;2023-12-22T09:54:11;99347.97;;;5.79;69.03
76201;BME280;64981;52.930;9.266;2023-12-22T09:56:37;99351.59;;;5.70;69.16
76201;BME280;64981;52.930;9.266;2023-12-22T09:59:11;99344.53;;;5.94;68.80
76201;BME280;64981;52.930;9.266;2023-12-22T10:01:43;99338.31;;;5.79;68.87
76201;BME280;64981;52.930;9.266;2023-12-22T10:04:09;99334.38;;;5.75;68.76
76201;BME280;64981;52.930;9.266;2023-12-22T10:06:35;99345.53;;;5.85;68.20
76201;BME280;64981;52.930;9.266;2023-12-22T10:09:02;99355.66;;;6.04;67.86
76201;BME280;64981;52.930;9.266;2023-12-22T10:11:32;99338.44;;;6.02;67.32
76201;BME280;64981;52.930;9.266;2023-12-22T10:14:00;99347.97;;;5.95;67.93
76201;BME280;64981;52.930;9.266;2023-12-22T10:16:27;99354.31;;;6.09;68.22
76201;BME280;64981;52.930;9.266;2023-12-22T10:18:53;99350.25;;;5.90;68.61
76201;BME280;64981;52.930;9.266;2023-12-22T10:21:19;99354.34;;;5.92;69.34
76201;BME280;64981;52.930;9.266;2023-12-22T10:23:45;99342.22;;;5.99;69.39
76201;BME280;64981;52.930;9.266;2023-12-22T10:26:11;99335.81;;;6.10;69.25
76201;BME280;64981;52.930;9.266;2023-12-22T10:28:37;99341.91;;;5.86;70.91
76201;BME280;64981;52.930;9.266;2023-12-22T10:31:03;99341.09;;;5.78;71.50
76201;BME280;64981;52.930;9.266;2023-12-22T10:33:32;99353.25;;;5.55;73.00
76201;BME280;64981;52.930;9.266;2023-12-22T10:35:59;99358.28;;;5.40;73.59
76201;BME280;64981;52.930;9.266;2023-12-22T10:38:26;99385.00;;;5.52;74.02
76201;BME280;64981;52.930;9.266;2023-12-22T10:40:52;99377.75;;;5.45;74.30
76201;BME280;64981;52.930;9.266;2023-12-22T10:43:18;99396.09;;;5.62;73.90
76201;BME280;64981;52.930;9.266;2023-12-22T10:45:44;99391.03;;;5.52;74.67
76201;BME280;64981;52.930;9.266;2023-12-22T10:48:10;99377.09;;;5.43;75.79
76201;BME280;64981;52.930;9.266;2023-12-22T10:50:36;99368.47;;;5.51;76.08
76201;BME280;64981;52.930;9.266;2023-12-22T10:53:05;99380.06;;;5.73;74.68
76201;BME280;64981;52.930;9.266;2023-12-22T10:55:31;99377.94;;;5.60;74.88
76201;BME280;64981;52.930;9.266;2023-12-22T10:58:02;99388.72;;;5.33;76.19
76201;BME280;64981;52.930;9.266;2023-12-22T11:00:28;99386.72;;;5.27;76.78
76201;BME280;64981;52.930;9.266;2023-12-22T11:03:01;99389.03;;;5.22;76.56
76201;BME280;64981;52.930;9.266;2023-12-22T11:05:29;99364.81;;;5.20;76.68
76201;BME280;64981;52.930;9.266;2023-12-22T11:08:00;99372.06;;;5.42;76.50
76201;BME280;64981;52.930;9.266;2023-12-22T11:10:31;99356.19;;;5.52;76.07
76201;BME280;64981;52.930;9.266;2023-12-22T11:12:57;99365.81;;;5.43;76.43
76201;BME280;64981;52.930;9.266;2023-12-22T11:15:24;99349.31;;;5.50;75.62
76201;BME280;64981;52.930;9.266;2023-12-22T11:17:52;99361.09;;;5.79;75.24
76201;BME280;64981;52.930;9.266;2023-12-22T11:20:18;99352.09;;;5.73;75.08
76201;BME280;64981;52.930;9.266;2023-12-22T11:22:45;99345.84;;;5.82;74.77
76201;BME280;64981;52.930;9.266;2023-12-22T11:25:13;99341.25;;;5.84;74.81
76201;BME280;64981;52.930;9.266;2023-12-22T11:27:42;99341.28;;;5.60;75.06
76201;BME280;64981;52.930;9.266;2023-12-22T11:30:11;99336.88;;;5.61;75.55
76201;BME280;64981;52.930;9.266;2023-12-22T11:32:39;99346.00;;;5.81;75.30
76201;BME280;64981;52.930;9.266;2023-12-22T11:35:05;99334.22;;;5.77;74.67
76201;BME280;64981;52.930;9.266;2023-12-22T11:37:35;99336.47;;;5.96;74.74
76201;BME280;64981;52.930;9.266;2023-12-22T11:40:01;99337.16;;;5.82;74.88
76201;BME280;64981;52.930;9.266;2023-12-22T11:42:31;99344.41;;;5.64;75.53
76201;BME280;64981;52.930;9.266;2023-12-22T11:44:59;99344.22;;;5.73;76.08
76201;BME280;64981;52.930;9.266;2023-12-22T11:47:25;99329.47;;;5.80;75.63
76201;BME280;64981;52.930;9.266;2023-12-22T11:49:52;99318.50;;;5.85;75.81
76201;BME280;64981;52.930;9.266;2023-12-22T11:52:25;99306.84;;;5.87;75.08
76201;BME280;64981;52.930;9.266;2023-12-22T11:54:53;99306.88;;;5.79;75.88
76201;BME280;64981;52.930;9.266;2023-12-22T11:57:30;99316.81;;;6.00;75.82
76201;BME280;64981;52.930;9.266;2023-12-22T11:59:56;99298.19;;;5.79;76.33
76201;BME280;64981;52.930;9.266;2023-12-22T12:02:22;99292.28;;;5.77;76.74
76201;BME280;64981;52.930;9.266;2023-12-22T12:04:48;99290.97;;;5.89;76.50
76201;BME280;64981;52.930;9.266;2023-12-22T12:10:00;99297.22;;;5.80;77.23
76201;BME280;64981;52.930;9.266;2023-12-22T12:12:27;99309.16;;;5.90;77.06
76201;BME280;64981;52.930;9.266;2023-12-22T12:14:58;99298.34;;;5.77;77.29
76201;BME280;64981;52.930;9.266;2023-12-22T12:17:32;99292.75;;;5.96;76.88
76201;BME280;64981;52.930;9.266;2023-12-22T12:19:58;99301.09;;;6.00;76.87
76201;BME280;64981;52.930;9.266;2023-12-22T12:22:25;99288.22;;;5.74;77.92
76201;BME280;64981;52.930;9.266;2023-12-22T12:24:52;99299.44;;;5.99;77.29
76201;BME280;64981;52.930;9.266;2023-12-22T12:27:19;99284.06;;;5.96;77.29
76201;BME280;64981;52.930;9.266;2023-12-22T12:29:45;99282.75;;;6.00;77.31
76201;BME280;64981;52.930;9.266;2023-12-22T12:32:14;99276.84;;;6.06;77.12
76201;BME280;64981;52.930;9.266;2023-12-22T12:34:42;99277.63;;;6.15;76.66
76201;BME280;64981;52.930;9.266;2023-12-22T12:37:08;99275.66;;;6.17;77.12
76201;BME280;64981;52.930;9.266;2023-12-22T12:39:35;99294.16;;;6.23;76.43
76201;BME280;64981;52.930;9.266;2023-12-22T12:42:06;99270.91;;;6.12;76.21
76201;BME280;64981;52.930;9.266;2023-12-22T12:44:34;99275.47;;;6.18;76.52
76201;BME280;64981;52.930;9.266;2023-12-22T12:47:12;99272.03;;;6.26;75.77
76201;BME280;64981;52.930;9.266;2023-12-22T12:49:38;99272.50;;;6.21;75.90
76201;BME280;64981;52.930;9.266;2023-12-22T12:52:04;99275.97;;;6.22;75.92
76201;BME280;64981;52.930;9.266;2023-12-22T12:54:31;99268.63;;;6.09;76.34
76201;BME280;64981;52.930;9.266;2023-12-22T12:56:57;99278.81;;;6.43;75.43
76201;BME280;64981;52.930;9.266;2023-12-22T12:59:23;99276.44;;;6.25;76.29
76201;BME280;64981;52.930;9.266;2023-12-22T13:01:49;99271.88;;;6.19;76.09
76201;BME280;64981;52.930;9.266;2023-12-22T13:04:15;99294.16;;;6.23;75.65
76201;BME280;64981;52.930;9.266;2023-12-22T13:06:49;99279.69;;;6.27;75.47
76201;BME280;64981;52.930;9.266;2023-12-22T13:09:16;99286.94;;;6.25;75.33